sensor_id;sensor_type;location;lat;lon;timestamp;pressure;altitude;pressure_sealevel;temperature;humidity
17785;BME280;9016;53.582;10.062;2023-02-28T00:01:28;103118.22;;;6.31;53.42
17785;BME280;9016;53.582;10.062;2023-02-28T00:03:58;103118.22;;;6.33;53.55
17785;BME280;9016;53.582;10.062;2023-02-28T00:06:27;103117.41;;;6.23;53.89
17785;BME280;9016;53.582;10.062;2023-02-28T00:08:55;103116.53;;;6.17;54.14
17785;BME280;9016;53.582;10.062;2023-02-28T00:11:25;103112.16;;;6.10;54.53
17785;BME280;9016;53.582;10.062;2023-02-28T00:13:54;103120.09;;;6.05;54.42
17785;BME280;9016;53.582;10.062;2023-02-28T00:16:22;103118.34;;;6.09;54.16
17785;BME280;9016;53.582;10.062;2023-02-28T00:18:50;103117.41;;;6.17;53.94
17785;BME280;9016;53.582;10.062;2023-02-28T00:21:21;103128.91;;;6.07;54.04
17785;BME280;9016;53.582;10.062;2023-02-28T00:23:49;103117.47;;;6.08;54.75
17785;BME280;9016;53.582;10.062;2023-02-28T00:26:17;103123.66;;;6.04;54.52
17785;BME280;9016;53.582;10.062;2023-02-28T00:28:47;103116.56;;;6.09;54.56
17785;BME280;9016;53.582;10.062;2023-02-28T00:31:16;103110.38;;;6.12;54.58
17785;BME280;9016;53.582;10.062;2023-02-28T00:33:44;103117.41;;;6.19;54.31
17785;BME280;9016;53.582;10.062;2023-02-28T00:36:12;103116.53;;;6.17;54.16
17785;BME280;9016;53.582;10.062;2023-02-28T00:38:43;103111.25;;;6.17;54.31
17785;BME280;9016;53.582;10.062;2023-02-28T00:41:11;103120.06;;;6.17;54.78
17785;BME280;9016;53.582;10.062;2023-02-28T00:43:40;103121.84;;;6.15;54.36
17785;BME280;9016;53.582;10.062;2023-02-28T00:46:10;103113.88;;;6.18;54.64
17785;BME280;9016;53.582;10.062;2023-02-28T00:48:38;103121.81;;;6.17;55.01
17785;BME280;9016;53.582;10.062;2023-02-28T00:51:06;103120.94;;;6.16;54.67
17785;BME280;9016;53.582;10.062;2023-02-28T00:53:34;103117.41;;;6.20;54.62
17785;BME280;9016;53.582;10.062;2023-02-28T00:56:04;103122.66;;;6.31;54.17
17785;BME280;9016;53.582;10.062;2023-02-28T00:58:32;103120.91;;;6.27;54.30
17785;BME280;9016;53.582;10.062;2023-02-28T01:01:00;103119.19;;;6.15;54.72
17785;BME280;9016;53.582;10.062;2023-02-28T01:03:28;103131.56;;;6.12;54.86
17785;BME280;9016;53.582;10.062;2023-02-28T01:05:58;103129.81;;;6.08;54.94
17785;BME280;9016;53.582;10.062;2023-02-28T01:08:26;103132.47;;;6.08;55.05
17785;BME280;9016;53.582;10.062;2023-02-28T01:10:54;103130.72;;;5.99;54.81
17785;BME280;9016;53.582;10.062;2023-02-28T01:13:23;103136.00;;;6.03;55.16
17785;BME280;9016;53.582;10.062;2023-02-28T01:15:53;103139.53;;;6.04;54.85
17785;BME280;9016;53.582;10.062;2023-02-28T01:18:23;103128.94;;;6.09;54.96
17785;BME280;9016;53.582;10.062;2023-02-28T01:20:52;103137.72;;;6.14;54.53
17785;BME280;9016;53.582;10.062;2023-02-28T01:23:21;103143.03;;;6.08;54.96
17785;BME280;9016;53.582;10.062;2023-02-28T01:25:50;103143.09;;;5.97;55.42
17785;BME280;9016;53.582;10.062;2023-02-28T01:28:18;103142.16;;;6.07;55.48
17785;BME280;9016;53.582;10.062;2023-02-28T01:30:49;103147.47;;;6.10;54.62
17785;BME280;9016;53.582;10.062;2023-02-28T01:33:17;103135.06;;;6.11;54.55
17785;BME280;9016;53.582;10.062;2023-02-28T01:35:45;103131.56;;;6.06;54.70
17785;BME280;9016;53.582;10.062;2023-02-28T01:38:13;103141.28;;;6.08;54.86
17785;BME280;9016;53.582;10.062;2023-02-28T01:40:47;103136.00;;;6.00;54.84
17785;BME280;9016;53.582;10.062;2023-02-28T01:43:20;103129.81;;;6.08;54.53
17785;BME280;9016;53.582;10.062;2023-02-28T01:45:53;103132.47;;;6.06;54.53
17785;BME280;9016;53.582;10.062;2023-02-28T01:48:24;103128.97;;;6.01;54.87
17785;BME280;9016;53.582;10.062;2023-02-28T01:50:54;103127.19;;;5.98;54.41
17785;BME280;9016;53.582;10.062;2023-02-28T01:53:29;103131.63;;;5.92;54.52
17785;BME280;9016;53.582;10.062;2023-02-28T01:55:59;103121.06;;;5.86;55.56
17785;BME280;9016;53.582;10.062;2023-02-28T01:58:27;103125.47;;;5.90;55.38
17785;BME280;9016;53.582;10.062;2023-02-28T02:00:57;103130.75;;;5.78;56.06
17785;BME280;9016;53.582;10.062;2023-02-28T02:03:25;103124.56;;;5.77;55.18
17785;BME280;9016;53.582;10.062;2023-02-28T02:05:53;103129.00;;;5.78;55.32
17785;BME280;9016;53.582;10.062;2023-02-28T02:08:23;103122.81;;;5.78;54.95
17785;BME280;9016;53.582;10.062;2023-02-28T02:10:55;103122.81;;;5.76;54.99
17785;BME280;9016;53.582;10.062;2023-02-28T02:16:35;103121.94;;;5.73;55.36
17785;BME280;9016;53.582;10.062;2023-02-28T02:19:20;103123.72;;;5.68;55.47
17785;BME280;9016;53.582;10.062;2023-02-28T02:22:14;103121.09;;;5.57;55.67
17785;BME280;9016;53.582;10.062;2023-02-28T02:24:58;103118.44;;;5.50;56.01
17785;BME280;9016;53.582;10.062;2023-02-28T02:27:46;103117.59;;;5.48;56.30
17785;BME280;9016;53.582;10.062;2023-02-28T02:30:44;103116.72;;;5.41;55.81
17785;BME280;9016;53.582;10.062;2023-02-28T02:33:47;103116.72;;;5.34;56.45
17785;BME280;9016;53.582;10.062;2023-02-28T02:36:23;103115.84;;;5.29;57.17
17785;BME280;9016;53.582;10.062;2023-02-28T02:38:57;103119.38;;;5.37;56.80
17785;BME280;9016;53.582;10.062;2023-02-28T02:41:35;103109.66;;;5.30;55.93
17785;BME280;9016;53.582;10.062;2023-02-28T02:44:11;103114.06;;;5.17;56.95
17785;BME280;9016;53.582;10.062;2023-02-28T02:46:42;103120.22;;;5.05;57.70
17785;BME280;9016;53.582;10.062;2023-02-28T02:49:15;103120.25;;;5.01;57.92
17785;BME280;9016;53.582;10.062;2023-02-28T02:51:47;103121.09;;;4.92;58.43
17785;BME280;9016;53.582;10.062;2023-02-28T02:54:19;103115.81;;;4.82;58.74
17785;BME280;9016;53.582;10.062;2023-02-28T02:56:50;103110.53;;;4.74;59.22
17785;BME280;9016;53.582;10.062;2023-02-28T02:59:21;103112.31;;;4.74;59.62
17785;BME280;9016;53.582;10.062;2023-02-28T03:01:53;103109.66;;;4.74;59.04
17785;BME280;9016;53.582;10.062;2023-02-28T03:04:25;103114.91;;;4.59;59.86
17785;BME280;9016;53.582;10.062;2023-02-28T03:06:57;103115.78;;;4.55;59.97
17785;BME280;9016;53.582;10.062;2023-02-28T03:09:26;103119.28;;;4.46;60.77
17785;BME280;9016;53.582;10.062;2023-02-28T03:11:55;103119.25;;;4.40;61.05
17785;BME280;9016;53.582;10.062;2023-02-28T03:14:39;103125.44;;;4.41;60.72
17785;BME280;9016;53.582;10.062;2023-02-28T03:17:24;103119.22;;;4.36;60.94
17785;BME280;9016;53.582;10.062;2023-02-28T03:20:03;103116.59;;;4.30;61.02
17785;BME280;9016;53.582;10.062;2023-02-28T03:22:45;103120.97;;;4.32;61.15
17785;BME280;9016;53.582;10.062;2023-02-28T03:25:24;103128.91;;;4.32;61.00
17785;BME280;9016;53.582;10.062;2023-02-28T03:28:05;103135.03;;;4.24;61.88
17785;BME280;9016;53.582;10.062;2023-02-28T03:30:42;103124.44;;;4.15;62.35
17785;BME280;9016;53.582;10.062;2023-02-28T03:33:16;103125.31;;;4.12;62.02
17785;BME280;9016;53.582;10.062;2023-02-28T03:35:48;103129.69;;;4.12;62.66
17785;BME280;9016;53.582;10.062;2023-02-28T03:38:23;103134.03;;;4.00;62.84
17785;BME280;9016;53.582;10.062;2023-02-28T03:41:00;103130.50;;;3.98;63.49
17785;BME280;9016;53.582;10.062;2023-02-28T03:43:32;103132.25;;;3.92;63.07
17785;BME280;9016;53.582;10.062;2023-02-28T03:46:06;103127.88;;;3.94;63.78
17785;BME280;9016;53.582;10.062;2023-02-28T03:48:40;103134.03;;;3.96;63.70
17785;BME280;9016;53.582;10.062;2023-02-28T03:51:14;103124.28;;;3.86;63.10
17785;BME280;9016;53.582;10.062;2023-02-28T03:53:47;103137.47;;;3.83;64.58
17785;BME280;9016;53.582;10.062;2023-02-28T03:56:19;103136.59;;;3.81;64.27
17785;BME280;9016;53.582;10.062;2023-02-28T03:58:51;103133.91;;;3.72;64.13
17785;BME280;9016;53.582;10.062;2023-02-28T04:01:24;103123.41;;;3.81;64.42
17785;BME280;9016;53.582;10.062;2023-02-28T04:03:55;103140.06;;;3.75;64.31
17785;BME280;9016;53.582;10.062;2023-02-28T04:06:23;103132.13;;;3.71;64.29
17785;BME280;9016;53.582;10.062;2023-02-28T04:08:53;103146.19;;;3.70;64.89
17785;BME280;9016;53.582;10.062;2023-02-28T04:11:23;103145.28;;;3.69;65.27
17785;BME280;9016;53.582;10.062;2023-02-28T04:13:52;103141.81;;;3.73;64.30
17785;BME280;9016;53.582;10.062;2023-02-28T04:16:20;103137.38;;;3.63;64.83
17785;BME280;9016;53.582;10.062;2023-02-28T04:19:01;103146.09;;;3.56;65.13
17785;BME280;9016;53.582;10.062;2023-02-28T04:21:31;103140.84;;;3.64;65.21
17785;BME280;9016;53.582;10.062;2023-02-28T04:24:01;103148.88;;;3.76;64.43
17785;BME280;9016;53.582;10.062;2023-02-28T04:26:29;103149.72;;;3.72;65.30
17785;BME280;9016;53.582;10.062;2023-02-28T04:28:57;103143.53;;;3.68;64.60
17785;BME280;9016;53.582;10.062;2023-02-28T04:31:26;103146.13;;;3.58;64.95
17785;BME280;9016;53.582;10.062;2023-02-28T04:33:54;103147.81;;;3.53;65.49
17785;BME280;9016;53.582;10.062;2023-02-28T04:36:22;103142.53;;;3.48;65.52
17785;BME280;9016;53.582;10.062;2023-02-28T04:38:50;103144.22;;;3.43;65.45
17785;BME280;9016;53.582;10.062;2023-02-28T04:41:20;103142.53;;;3.48;66.11
17785;BME280;9016;53.582;10.062;2023-02-28T04:43:50;103150.50;;;3.56;65.67
17785;BME280;9016;53.582;10.062;2023-02-28T04:46:20;103152.19;;;3.48;65.66
17785;BME280;9016;53.582;10.062;2023-02-28T04:48:48;103148.59;;;3.37;66.18
17785;BME280;9016;53.582;10.062;2023-02-28T04:51:18;103152.13;;;3.40;65.87
17785;BME280;9016;53.582;10.062;2023-02-28T04:53:46;103159.13;;;3.35;65.85
17785;BME280;9016;53.582;10.062;2023-02-28T04:56:16;103144.16;;;3.34;65.93
17785;BME280;9016;53.582;10.062;2023-02-28T04:58:47;103156.44;;;3.29;66.17
17785;BME280;9016;53.582;10.062;2023-02-28T05:01:21;103144.16;;;3.36;65.93
17785;BME280;9016;53.582;10.062;2023-02-28T05:03:51;103157.38;;;3.39;66.27
17785;BME280;9016;53.582;10.062;2023-02-28T05:06:21;103156.44;;;3.31;66.27
17785;BME280;9016;53.582;10.062;2023-02-28T05:08:50;103155.50;;;3.23;66.54
17785;BME280;9016;53.582;10.062;2023-02-28T05:11:20;103152.00;;;3.24;66.54
17785;BME280;9016;53.582;10.062;2023-02-28T05:13:51;103151.09;;;3.22;67.24
17785;BME280;9016;53.582;10.062;2023-02-28T05:16:20;103162.53;;;3.22;67.08
17785;BME280;9016;53.582;10.062;2023-02-28T05:18:48;103166.91;;;3.25;66.53
17785;BME280;9016;53.582;10.062;2023-02-28T05:21:26;103165.97;;;3.15;67.56
17785;BME280;9016;53.582;10.062;2023-02-28T05:23:56;103165.03;;;3.10;67.57
17785;BME280;9016;53.582;10.062;2023-02-28T05:26:26;103165.84;;;3.03;68.56
17785;BME280;9016;53.582;10.062;2023-02-28T05:28:55;103159.69;;;3.02;68.36
17785;BME280;9016;53.582;10.062;2023-02-28T05:31:24;103164.97;;;3.02;68.15
17785;BME280;9016;53.582;10.062;2023-02-28T05:33:53;103167.56;;;2.99;68.78
17785;BME280;9016;53.582;10.062;2023-02-28T05:36:21;103164.88;;;2.93;68.88
17785;BME280;9016;53.582;10.062;2023-02-28T05:38:50;103162.22;;;2.89;69.62
17785;BME280;9016;53.582;10.062;2023-02-28T05:41:19;103166.56;;;2.85;69.32
17785;BME280;9016;53.582;10.062;2023-02-28T05:43:48;103166.50;;;2.82;69.35
17785;BME280;9016;53.582;10.062;2023-02-28T05:46:17;103162.13;;;2.78;69.66
17785;BME280;9016;53.582;10.062;2023-02-28T05:48:47;103159.53;;;2.86;69.40
17785;BME280;9016;53.582;10.062;2023-02-28T05:51:16;103156.97;;;2.92;68.92
17785;BME280;9016;53.582;10.062;2023-02-28T05:53:44;103167.47;;;2.87;69.34
17785;BME280;9016;53.582;10.062;2023-02-28T05:56:12;103172.66;;;2.78;69.83
17785;BME280;9016;53.582;10.062;2023-02-28T05:58:40;103180.53;;;2.78;69.78
17785;BME280;9016;53.582;10.062;2023-02-28T06:01:27;103182.22;;;2.72;69.82
17785;BME280;9016;53.582;10.062;2023-02-28T06:03:58;103175.13;;;2.68;70.52
17785;BME280;9016;53.582;10.062;2023-02-28T06:06:26;103170.84;;;2.76;69.93
17785;BME280;9016;53.582;10.062;2023-02-28T06:08:54;103175.38;;;2.89;69.96
17785;BME280;9016;53.582;10.062;2023-02-28T06:11:22;103176.31;;;2.95;69.57
17785;BME280;9016;53.582;10.062;2023-02-28T06:13:55;103182.38;;;2.90;69.12
17785;BME280;9016;53.582;10.062;2023-02-28T06:16:25;103185.00;;;2.84;69.35
17785;BME280;9016;53.582;10.062;2023-02-28T06:18:53;103184.94;;;2.82;69.69
17785;BME280;9016;53.582;10.062;2023-02-28T06:21:23;103180.53;;;2.78;70.22
17785;BME280;9016;53.582;10.062;2023-02-28T06:23:51;103184.03;;;2.77;70.61
17785;BME280;9016;53.582;10.062;2023-02-28T06:26:19;103182.28;;;2.79;70.52
17785;BME280;9016;53.582;10.062;2023-02-28T06:28:48;103187.66;;;2.91;69.85
17785;BME280;9016;53.582;10.062;2023-02-28T06:31:18;103190.34;;;2.93;69.31
17785;BME280;9016;53.582;10.062;2023-02-28T06:33:47;103196.44;;;2.87;70.38
17785;BME280;9016;53.582;10.062;2023-02-28T06:36:16;103192.06;;;2.91;70.49
17785;BME280;9016;53.582;10.062;2023-02-28T06:38:45;103203.50;;;2.93;70.19
17785;BME280;9016;53.582;10.062;2023-02-28T06:41:17;103195.53;;;2.84;70.44
17785;BME280;9016;53.582;10.062;2023-02-28T06:43:45;103202.50;;;2.82;70.81
17785;BME280;9016;53.582;10.062;2023-02-28T06:46:14;103199.91;;;2.83;70.65
17785;BME280;9016;53.582;10.062;2023-02-28T06:48:43;103195.53;;;2.87;71.06
17785;BME280;9016;53.582;10.062;2023-02-28T06:51:13;103195.56;;;2.91;70.66
17785;BME280;9016;53.582;10.062;2023-02-28T06:53:42;103199.31;;;3.12;69.98
17785;BME280;9016;53.582;10.062;2023-02-28T06:56:12;103195.03;;;3.26;69.23
17785;BME280;9016;53.582;10.062;2023-02-28T06:58:41;103201.13;;;3.19;69.49
17785;BME280;9016;53.582;10.062;2023-02-28T07:01:10;103208.22;;;3.24;69.19
17785;BME280;9016;53.582;10.062;2023-02-28T07:03:38;103202.94;;;3.23;69.51
17785;BME280;9016;53.582;10.062;2023-02-28T07:06:06;103198.53;;;3.25;69.94
17785;BME280;9016;53.582;10.062;2023-02-28T07:08:35;103196.84;;;3.28;69.35
17785;BME280;9016;53.582;10.062;2023-02-28T07:11:04;103209.94;;;3.22;69.98
17785;BME280;9016;53.582;10.062;2023-02-28T07:13:32;103217.03;;;3.29;70.56
17785;BME280;9016;53.582;10.062;2023-02-28T07:16:02;103205.72;;;3.41;69.76
17785;BME280;9016;53.582;10.062;2023-02-28T07:18:31;103203.91;;;3.37;69.24
17785;BME280;9016;53.582;10.062;2023-02-28T07:21:01;103210.94;;;3.38;69.22
17785;BME280;9016;53.582;10.062;2023-02-28T07:23:29;103214.53;;;3.43;68.63
17785;BME280;9016;53.582;10.062;2023-02-28T07:25:59;103214.53;;;3.47;68.44
17785;BME280;9016;53.582;10.062;2023-02-28T07:28:27;103210.22;;;3.52;68.44
17785;BME280;9016;53.582;10.062;2023-02-28T07:30:55;103211.06;;;3.53;69.31
17785;BME280;9016;53.582;10.062;2023-02-28T07:33:23;103214.69;;;3.62;69.37
17785;BME280;9016;53.582;10.062;2023-02-28T07:35:51;103207.72;;;3.72;68.61
17785;BME280;9016;53.582;10.062;2023-02-28T07:38:19;103213.94;;;3.80;68.15
17785;BME280;9016;53.582;10.062;2023-02-28T07:40:47;103204.34;;;3.91;68.40
17785;BME280;9016;53.582;10.062;2023-02-28T07:43:17;103213.16;;;3.96;67.63
17785;BME280;9016;53.582;10.062;2023-02-28T07:45:45;103208.78;;;4.04;67.76
17785;BME280;9016;53.582;10.062;2023-02-28T07:48:14;103215.00;;;4.11;67.67
17785;BME280;9016;53.582;10.062;2023-02-28T07:50:42;103216.81;;;4.16;67.19
17785;BME280;9016;53.582;10.062;2023-02-28T07:53:10;103215.94;;;4.23;66.73
17785;BME280;9016;53.582;10.062;2023-02-28T07:55:38;103208.94;;;4.25;66.66
17785;BME280;9016;53.582;10.062;2023-02-28T07:58:09;103210.72;;;4.34;67.09
17785;BME280;9016;53.582;10.062;2023-02-28T08:00:38;103212.50;;;4.38;66.44
17785;BME280;9016;53.582;10.062;2023-02-28T08:03:08;103218.72;;;4.46;66.23
17785;BME280;9016;53.582;10.062;2023-02-28T08:05:38;103215.19;;;4.47;65.82
17785;BME280;9016;53.582;10.062;2023-02-28T08:08:07;103212.56;;;4.56;65.80
17785;BME280;9016;53.582;10.062;2023-02-28T08:10:42;103217.03;;;4.69;65.75
17785;BME280;9016;53.582;10.062;2023-02-28T08:13:10;103218.84;;;4.77;65.53
17785;BME280;9016;53.582;10.062;2023-02-28T08:15:40;103215.31;;;4.75;65.13
17785;BME280;9016;53.582;10.062;2023-02-28T08:18:08;103217.97;;;4.83;65.23
17785;BME280;9016;53.582;10.062;2023-02-28T08:20:36;103224.09;;;4.73;64.71
17785;BME280;9016;53.582;10.062;2023-02-28T08:23:07;103220.63;;;4.84;65.02
17785;BME280;9016;53.582;10.062;2023-02-28T08:25:35;103223.28;;;4.95;64.54
17785;BME280;9016;53.582;10.062;2023-02-28T08:28:03;103211.84;;;5.10;64.15
17785;BME280;9016;53.582;10.062;2023-02-28T08:30:32;103225.09;;;5.22;63.58
17785;BME280;9016;53.582;10.062;2023-02-28T08:33:01;103224.19;;;5.24;63.59
17785;BME280;9016;53.582;10.062;2023-02-28T08:35:29;103217.16;;;5.28;63.40
17785;BME280;9016;53.582;10.062;2023-02-28T08:37:59;103225.13;;;5.31;62.66
17785;BME280;9016;53.582;10.062;2023-02-28T08:40:27;103213.69;;;5.42;62.57
17785;BME280;9016;53.582;10.062;2023-02-28T08:42:55;103219.81;;;5.41;63.09
17785;BME280;9016;53.582;10.062;2023-02-28T08:45:23;103218.06;;;5.54;62.72
17785;BME280;9016;53.582;10.062;2023-02-28T08:47:56;103211.91;;;5.64;62.33
17785;BME280;9016;53.582;10.062;2023-02-28T08:50:25;103219.84;;;5.70;61.27
17785;BME280;9016;53.582;10.062;2023-02-28T08:52:53;103223.38;;;5.64;61.68
17785;BME280;9016;53.582;10.062;2023-02-28T08:55:22;103217.19;;;5.58;61.15
17785;BME280;9016;53.582;10.062;2023-02-28T08:57:50;103222.47;;;5.73;60.97
17785;BME280;9016;53.582;10.062;2023-02-28T09:00:20;103229.53;;;5.75;60.21
17785;BME280;9016;53.582;10.062;2023-02-28T09:02:48;103220.72;;;5.93;60.34
17785;BME280;9016;53.582;10.062;2023-02-28T09:05:16;103218.91;;;5.99;60.08
17785;BME280;9016;53.582;10.062;2023-02-28T09:07:49;103218.00;;;6.13;59.88
17785;BME280;9016;53.582;10.062;2023-02-28T09:10:19;103225.94;;;6.20;58.78
17785;BME280;9016;53.582;10.062;2023-02-28T09:12:47;103234.75;;;6.16;58.68
17785;BME280;9016;53.582;10.062;2023-02-28T09:15:16;103225.03;;;6.30;58.86
17785;BME280;9016;53.582;10.062;2023-02-28T09:17:44;103231.19;;;6.47;58.21
17785;BME280;9016;53.582;10.062;2023-02-28T09:20:15;103226.72;;;6.52;57.92
17785;BME280;9016;53.582;10.062;2023-02-28T09:22:43;103224.06;;;6.52;57.28
17785;BME280;9016;53.582;10.062;2023-02-28T09:25:13;103226.78;;;6.42;55.03
17785;BME280;9016;53.582;10.062;2023-02-28T09:27:42;103227.66;;;6.45;55.52
17785;BME280;9016;53.582;10.062;2023-02-28T09:30:11;103236.47;;;6.47;53.79
17785;BME280;9016;53.582;10.062;2023-02-28T09:32:40;103232.84;;;6.60;53.80
17785;BME280;9016;53.582;10.062;2023-02-28T09:35:08;103235.56;;;6.54;52.57
17785;BME280;9016;53.582;10.062;2023-02-28T09:37:41;103231.06;;;6.73;52.08
17785;BME280;9016;53.582;10.062;2023-02-28T09:40:10;103233.66;;;6.82;51.73
17785;BME280;9016;53.582;10.062;2023-02-28T09:42:41;103225.69;;;6.88;51.29
17785;BME280;9016;53.582;10.062;2023-02-28T09:45:17;103230.91;;;6.95;51.59
17785;BME280;9016;53.582;10.062;2023-02-28T09:47:48;103235.28;;;7.06;50.52
17785;BME280;9016;53.582;10.062;2023-02-28T09:50:23;103238.81;;;7.09;49.64
17785;BME280;9016;53.582;10.062;2023-02-28T09:52:57;103237.91;;;7.12;49.73
17785;BME280;9016;53.582;10.062;2023-02-28T09:55:29;103242.28;;;7.14;49.05
17785;BME280;9016;53.582;10.062;2023-02-28T09:58:16;103241.41;;;7.17;50.34
17785;BME280;9016;53.582;10.062;2023-02-28T10:00:52;103242.28;;;7.19;49.88
17785;BME280;9016;53.582;10.062;2023-02-28T10:03:30;103238.75;;;7.21;49.25
17785;BME280;9016;53.582;10.062;2023-02-28T10:06:07;103243.06;;;7.31;48.58
17785;BME280;9016;53.582;10.062;2023-02-28T10:08:38;103241.38;;;7.20;48.85
17785;BME280;9016;53.582;10.062;2023-02-28T10:11:16;103237.88;;;7.15;48.73
17785;BME280;9016;53.582;10.062;2023-02-28T10:13:53;103236.09;;;7.18;49.26
17785;BME280;9016;53.582;10.062;2023-02-28T10:16:25;103236.13;;;7.14;47.49
17785;BME280;9016;53.582;10.062;2023-02-28T10:18:59;103237.84;;;7.18;48.60
17785;BME280;9016;53.582;10.062;2023-02-28T10:21:34;103237.03;;;7.11;48.11
17785;BME280;9016;53.582;10.062;2023-02-28T10:24:16;103234.31;;;7.20;47.17
17785;BME280;9016;53.582;10.062;2023-02-28T10:26:48;103236.16;;;7.08;48.10
17785;BME280;9016;53.582;10.062;2023-02-28T10:29:19;103234.28;;;7.22;47.56
17785;BME280;9016;53.582;10.062;2023-02-28T10:31:47;103236.00;;;7.29;47.89
17785;BME280;9016;53.582;10.062;2023-02-28T10:34:15;103236.03;;;7.27;47.83
17785;BME280;9016;53.582;10.062;2023-02-28T10:36:43;103236.06;;;7.23;46.87
17785;BME280;9016;53.582;10.062;2023-02-28T10:39:34;103235.06;;;7.43;45.82
17785;BME280;9016;53.582;10.062;2023-02-28T10:42:03;103231.50;;;7.44;46.86
17785;BME280;9016;53.582;10.062;2023-02-28T10:44:33;103227.84;;;7.57;46.03
17785;BME280;9016;53.582;10.062;2023-02-28T10:47:00;103233.06;;;7.68;45.88
17785;BME280;9016;53.582;10.062;2023-02-28T10:49:29;103224.16;;;7.73;45.65
17785;BME280;9016;53.582;10.062;2023-02-28T10:51:59;103228.47;;;7.85;45.71
17785;BME280;9016;53.582;10.062;2023-02-28T10:54:30;103228.31;;;8.03;45.84
17785;BME280;9016;53.582;10.062;2023-02-28T10:57:19;103227.41;;;8.04;44.83
17785;BME280;9016;53.582;10.062;2023-02-28T10:59:53;103227.38;;;8.07;45.04
17785;BME280;9016;53.582;10.062;2023-02-28T11:02:36;103228.31;;;8.03;43.73
17785;BME280;9016;53.582;10.062;2023-02-28T11:05:26;103230.25;;;7.87;43.89
17785;BME280;9016;53.582;10.062;2023-02-28T11:07:59;103235.47;;;7.93;44.31
17785;BME280;9016;53.582;10.062;2023-02-28T11:10:30;103237.31;;;7.87;43.49
17785;BME280;9016;53.582;10.062;2023-02-28T11:13:01;103228.44;;;7.91;45.00
17785;BME280;9016;53.582;10.062;2023-02-28T11:15:33;103228.28;;;8.04;44.07
17785;BME280;9016;53.582;10.062;2023-02-28T11:18:06;103229.19;;;8.03;43.30
17785;BME280;9016;53.582;10.062;2023-02-28T11:20:48;103226.75;;;7.81;43.05
17785;BME280;9016;53.582;10.062;2023-02-28T11:23:19;103224.06;;;7.84;43.79
17785;BME280;9016;53.582;10.062;2023-02-28T11:25:50;103226.53;;;8.00;43.86
17785;BME280;9016;53.582;10.062;2023-02-28T11:28:27;103222.94;;;8.06;42.80
17785;BME280;9016;53.582;10.062;2023-02-28T11:31:15;103221.22;;;8.03;42.59
17785;BME280;9016;53.582;10.062;2023-02-28T11:33:47;103219.41;;;8.07;43.30
17785;BME280;9016;53.582;10.062;2023-02-28T11:36:19;103209.59;;;8.12;43.37
17785;BME280;9016;53.582;10.062;2023-02-28T11:38:48;103204.25;;;8.17;42.64
17785;BME280;9016;53.582;10.062;2023-02-28T11:41:43;103212.25;;;8.15;41.71
17785;BME280;9016;53.582;10.062;2023-02-28T11:44:21;103207.00;;;8.06;41.75
17785;BME280;9016;53.582;10.062;2023-02-28T11:46:56;103206.25;;;7.98;42.02
17785;BME280;9016;53.582;10.062;2023-02-28T11:49:32;103199.91;;;8.11;42.20
17785;BME280;9016;53.582;10.062;2023-02-28T11:52:08;103201.59;;;8.18;41.53
17785;BME280;9016;53.582;10.062;2023-02-28T11:54:58;103196.19;;;8.23;40.86
17785;BME280;9016;53.582;10.062;2023-02-28T11:57:35;103196.22;;;8.21;40.70
17785;BME280;9016;53.582;10.062;2023-02-28T12:00:19;103188.31;;;8.18;40.20
17785;BME280;9016;53.582;10.062;2023-02-28T12:03:06;103184.75;;;8.18;40.90
17785;BME280;9016;53.582;10.062;2023-02-28T12:05:44;103177.53;;;8.35;40.66
17785;BME280;9016;53.582;10.062;2023-02-28T12:08:26;103181.94;;;8.34;40.41
17785;BME280;9016;53.582;10.062;2023-02-28T12:11:09;103178.38;;;8.37;40.45
17785;BME280;9016;53.582;10.062;2023-02-28T12:13:47;103175.81;;;8.29;40.47
17785;BME280;9016;53.582;10.062;2023-02-28T12:16:29;103170.38;;;8.38;39.88
17785;BME280;9016;53.582;10.062;2023-02-28T12:19:17;103162.47;;;8.32;40.18
17785;BME280;9016;53.582;10.062;2023-02-28T12:22:12;103160.53;;;8.48;40.21
17785;BME280;9016;53.582;10.062;2023-02-28T12:24:58;103149.66;;;8.64;40.33
17785;BME280;9016;53.582;10.062;2023-02-28T12:27:34;103155.81;;;8.68;41.26
17785;BME280;9016;53.582;10.062;2023-02-28T12:30:06;103145.34;;;8.57;40.79
17785;BME280;9016;53.582;10.062;2023-02-28T12:32:42;103143.53;;;8.61;41.54
17785;BME280;9016;53.582;10.062;2023-02-28T12:35:14;103141.97;;;8.43;40.87
17785;BME280;9016;53.582;10.062;2023-02-28T12:37:49;103140.25;;;8.41;40.94
17785;BME280;9016;53.582;10.062;2023-02-28T12:40:21;103140.06;;;8.53;41.05
17785;BME280;9016;53.582;10.062;2023-02-28T12:42:53;103131.91;;;8.66;40.29
17785;BME280;9016;53.582;10.062;2023-02-28T12:45:31;103121.13;;;8.77;40.05
17785;BME280;9016;53.582;10.062;2023-02-28T12:48:09;103120.06;;;8.88;39.93
17785;BME280;9016;53.582;10.062;2023-02-28T12:50:47;103114.78;;;8.87;38.77
17785;BME280;9016;53.582;10.062;2023-02-28T12:53:23;103117.47;;;8.84;39.56
17785;BME280;9016;53.582;10.062;2023-02-28T12:56:02;103114.00;;;8.79;40.25
17785;BME280;9016;53.582;10.062;2023-02-28T12:58:37;103112.25;;;8.79;40.83
17785;BME280;9016;53.582;10.062;2023-02-28T13:01:29;103104.03;;;8.94;40.43
17785;BME280;9016;53.582;10.062;2023-02-28T13:04:42;103102.16;;;8.99;38.87
17785;BME280;9016;53.582;10.062;2023-02-28T13:10:11;103093.38;;;8.93;40.43
17785;BME280;9016;53.582;10.062;2023-02-28T13:12:48;103101.38;;;8.94;40.28
17785;BME280;9016;53.582;10.062;2023-02-28T13:15:19;103084.31;;;9.06;39.89
17785;BME280;9016;53.582;10.062;2023-02-28T13:17:52;103079.72;;;9.16;39.98
17785;BME280;9016;53.582;10.062;2023-02-28T13:20:23;103076.13;;;9.18;39.13
17785;BME280;9016;53.582;10.062;2023-02-28T13:22:56;103077.13;;;9.13;38.88
17785;BME280;9016;53.582;10.062;2023-02-28T13:25:51;103078.66;;;9.24;39.19
17785;BME280;9016;53.582;10.062;2023-02-28T13:34:40;103069.63;;;9.34;39.55
17785;BME280;9016;53.582;10.062;2023-02-28T13:37:35;103075.44;;;9.56;38.39
17785;BME280;9016;53.582;10.062;2023-02-28T13:40:29;103066.53;;;9.58;38.09